createdAt,value
2023-03-06T00:00:47.374Z,49.14
2023-03-06T00:03:17.689Z,49.03
2023-03-06T00:05:48.882Z,48.99
2023-03-06T00:08:19.072Z,48.66
2023-03-06T00:10:49.276Z,48.89
2023-03-06T00:13:22.940Z,48.64
2023-03-06T00:15:53.188Z,48.52
2023-03-06T00:18:23.377Z,49.17
2023-03-06T00:20:53.719Z,48.75
2023-03-06T00:23:23.940Z,49.22
2023-03-06T00:25:54.078Z,49.56
2023-03-06T00:28:24.247Z,49.58
2023-03-06T00:30:54.487Z,49.84
2023-03-06T00:33:24.693Z,49.70
2023-03-06T00:35:57.269Z,50.07
2023-03-06T00:38:29.979Z,50.07
2023-03-06T00:41:00.504Z,50.19
2023-03-06T00:43:31.770Z,50.10
2023-03-06T00:46:02.025Z,50.04
2023-03-06T00:48:32.156Z,50.28
2023-03-06T00:51:02.633Z,49.99
2023-03-06T00:53:32.876Z,49.94
2023-03-06T00:56:03.251Z,49.81
2023-03-06T00:58:38.656Z,50.07
2023-03-06T01:01:09.002Z,49.97
2023-03-06T01:03:39.494Z,49.87
2023-03-06T01:06:09.805Z,49.94
2023-03-06T01:08:40.028Z,50.41
2023-03-06T01:11:10.278Z,50.48
2023-03-06T01:13:40.517Z,50.16
2023-03-06T01:16:11.777Z,50.64
2023-03-06T01:18:42.545Z,50.69
2023-03-06T01:21:12.868Z,51.17
2023-03-06T01:23:43.633Z,51.11
2023-03-06T01:26:13.926Z,51.74
2023-03-06T01:28:44.671Z,51.63
2023-03-06T01:31:14.952Z,51.86
2023-03-06T01:33:45.363Z,51.93
2023-03-06T01:36:17.464Z,52.37
2023-03-06T01:38:48.636Z,52.05
2023-03-06T01:41:19.616Z,51.46
2023-03-06T01:43:50.359Z,51.56
2023-03-06T01:46:20.564Z,51.46
2023-03-06T01:48:52.000Z,51.61
2023-03-06T01:51:23.006Z,51.57
2023-03-06T01:53:54.602Z,51.12
2023-03-06T01:56:26.427Z,51.34
2023-03-06T01:58:56.680Z,51.26
2023-03-06T02:01:27.214Z,51.21
2023-03-06T02:03:57.579Z,51.20
2023-03-06T02:06:27.820Z,51.28
2023-03-06T02:08:58.418Z,51.65
2023-03-06T02:11:29.119Z,51.48
2023-03-06T02:13:59.443Z,51.41
2023-03-06T02:16:31.294Z,51.18
2023-03-06T02:19:03.849Z,51.64
2023-03-06T02:21:36.124Z,51.14
2023-03-06T02:24:35.684Z,51.24
2023-03-06T02:27:07.204Z,51.55
2023-03-06T02:29:38.424Z,51.51
2023-03-06T02:32:09.056Z,51.02
2023-03-06T02:34:39.257Z,51.01
2023-03-06T02:37:10.516Z,51.35
2023-03-06T02:39:43.512Z,51.52
2023-03-06T02:42:19.458Z,51.17
2023-03-06T02:44:50.513Z,51.08
2023-03-06T02:47:20.894Z,51.53
2023-03-06T02:49:51.200Z,51.11
2023-03-06T02:52:21.721Z,51.11
2023-03-06T02:54:52.060Z,51.51
2023-03-06T02:57:22.887Z,51.12
2023-03-06T02:59:53.585Z,51.31
2023-03-06T03:02:23.855Z,51.21
2023-03-06T03:04:54.997Z,51.52
2023-03-06T03:07:26.440Z,51.46
2023-03-06T03:09:56.926Z,51.13
2023-03-06T03:12:29.552Z,51.49
2023-03-06T03:14:59.892Z,51.50
2023-03-06T03:17:32.059Z,51.35
2023-03-06T03:20:03.026Z,51.29
2023-03-06T03:22:33.440Z,51.40
2023-03-06T03:25:03.898Z,51.33
2023-03-06T03:27:34.586Z,50.81
2023-03-06T03:30:05.887Z,51.15
2023-03-06T03:32:36.189Z,51.15
2023-03-06T03:35:07.985Z,50.83
2023-03-06T03:37:39.421Z,51.26
2023-03-06T03:40:11.711Z,50.68
2023-03-06T03:42:42.300Z,51.08
2023-03-06T03:45:13.635Z,51.04
2023-03-06T03:47:44.425Z,50.94
2023-03-06T03:50:16.440Z,51.06
2023-03-06T03:52:47.302Z,50.58
2023-03-06T03:55:17.662Z,50.52
2023-03-06T03:57:48.586Z,50.76
2023-03-06T04:00:19.181Z,50.39
2023-03-06T04:03:05.931Z,50.31
2023-03-06T04:05:40.555Z,50.32
2023-03-06T04:08:12.282Z,50.64
2023-03-06T04:10:45.916Z,50.55
2023-03-06T04:13:19.474Z,50.68
2023-03-06T04:15:51.160Z,49.98
2023-03-06T04:18:25.033Z,50.49
2023-03-06T04:20:58.467Z,50.35
2023-03-06T04:23:29.349Z,50.38
2023-03-06T04:26:00.020Z,50.22
2023-03-06T04:28:31.322Z,49.77
2023-03-06T04:31:02.768Z,50.14
2023-03-06T04:33:34.477Z,49.45
2023-03-06T04:36:05.137Z,49.98
2023-03-06T04:38:36.881Z,49.49
2023-03-06T04:41:08.518Z,49.38
2023-03-06T04:43:40.945Z,49.21
2023-03-06T04:46:12.777Z,49.17
2023-03-06T04:48:42.975Z,49.21
2023-03-06T04:51:16.505Z,49.16
2023-03-06T04:53:47.009Z,49.08
2023-03-06T04:56:17.338Z,49.16
2023-03-06T04:58:47.608Z,49.33
2023-03-06T05:01:17.814Z,49.43
2023-03-06T05:03:48.706Z,49.05
2023-03-06T05:06:18.925Z,48.98
2023-03-06T05:08:49.273Z,48.99
2023-03-06T05:11:19.563Z,48.95
2023-03-06T05:13:49.821Z,48.98
2023-03-06T05:16:20.117Z,49.11
2023-03-06T05:18:50.769Z,48.86
2023-03-06T05:21:21.698Z,48.72
2023-03-06T05:23:51.933Z,48.58
2023-03-06T05:26:22.128Z,48.46
2023-03-06T05:28:52.406Z,48.74
2023-03-06T05:31:22.863Z,48.50
2023-03-06T05:33:54.784Z,48.68
2023-03-06T05:36:41.168Z,48.75
2023-03-06T05:39:11.549Z,48.67
2023-03-06T05:41:41.819Z,48.34
2023-03-06T05:44:12.052Z,48.00
2023-03-06T05:46:42.228Z,48.49
2023-03-06T05:49:12.437Z,48.70
2023-03-06T05:51:51.811Z,48.71
2023-03-06T05:54:22.685Z,47.98
2023-03-06T05:56:53.070Z,48.35
2023-03-06T05:59:23.248Z,48.32
2023-03-06T06:01:53.461Z,48.50
2023-03-06T06:04:24.490Z,48.14
2023-03-06T06:06:58.926Z,48.53
2023-03-06T06:09:30.464Z,48.11
2023-03-06T06:12:01.977Z,47.83
2023-03-06T06:14:32.540Z,47.94
2023-03-06T06:17:02.752Z,47.79
2023-03-06T06:19:33.305Z,48.31
2023-03-06T06:22:06.391Z,47.73
2023-03-06T06:24:36.692Z,47.69
2023-03-06T06:27:06.893Z,47.62
2023-03-06T06:29:37.646Z,47.58
2023-03-06T06:32:08.178Z,47.55
2023-03-06T06:34:38.488Z,47.59
2023-03-06T06:37:08.672Z,47.75
2023-03-06T06:39:38.982Z,47.60
2023-03-06T06:42:29.824Z,47.32
2023-03-06T06:45:01.735Z,47.17
2023-03-06T06:47:32.535Z,47.77
2023-03-06T06:50:02.903Z,47.25
2023-03-06T06:52:33.814Z,47.64
2023-03-06T06:55:03.973Z,47.70
2023-03-06T06:57:34.184Z,47.28
2023-03-06T07:00:05.203Z,47.61
2023-03-06T07:02:35.501Z,47.20
2023-03-06T07:05:05.899Z,47.18
2023-03-06T07:07:36.982Z,47.14
2023-03-06T07:10:14.482Z,47.54
2023-03-06T07:12:44.758Z,46.91
2023-03-06T07:15:16.386Z,47.09
2023-03-06T07:17:48.913Z,46.90
2023-03-06T07:20:21.050Z,46.74
2023-03-06T07:22:52.020Z,46.90
2023-03-06T07:25:22.842Z,46.97
2023-03-06T07:27:54.733Z,46.71
2023-03-06T07:30:25.447Z,46.48
2023-03-06T07:32:56.849Z,46.98
2023-03-06T07:35:27.422Z,46.89
2023-03-06T07:37:57.633Z,46.71
2023-03-06T07:40:28.340Z,46.44
2023-03-06T07:43:16.847Z,46.41
2023-03-06T07:46:00.312Z,46.51
2023-03-06T07:48:30.549Z,46.01
2023-03-06T07:51:02.462Z,46.27
2023-03-06T07:53:33.012Z,45.93
2023-03-06T07:56:09.913Z,46.10
2023-03-06T07:58:41.429Z,46.07
2023-03-06T08:01:13.567Z,45.94
2023-03-06T08:03:43.843Z,45.99
2023-03-06T08:06:18.739Z,45.77
2023-03-06T08:08:49.563Z,45.90
2023-03-06T08:11:21.043Z,45.64
2023-03-06T08:13:51.292Z,45.81
2023-03-06T08:16:22.611Z,45.62
2023-03-06T08:18:53.140Z,45.65
2023-03-06T08:21:25.374Z,45.47
2023-03-06T08:23:55.909Z,45.29
2023-03-06T08:26:27.532Z,44.90
2023-03-06T08:28:58.702Z,45.10
2023-03-06T08:31:28.924Z,45.14
2023-03-06T08:33:59.921Z,45.15
2023-03-06T08:36:30.418Z,45.02
2023-03-06T08:39:01.133Z,44.94
2023-03-06T08:41:31.643Z,44.85
2023-03-06T08:44:01.970Z,45.01
2023-03-06T08:46:32.495Z,44.97
2023-03-06T08:49:02.983Z,44.94
2023-03-06T08:51:33.381Z,44.82
2023-03-06T08:54:03.587Z,44.94
2023-03-06T08:56:35.396Z,44.57
2023-03-06T08:59:06.536Z,44.68
2023-03-06T09:01:39.181Z,44.73
2023-03-06T09:04:11.303Z,44.60
2023-03-06T09:06:43.408Z,44.51
2023-03-06T09:09:14.621Z,44.56
2023-03-06T09:11:45.159Z,44.54
2023-03-06T09:14:16.004Z,44.44
2023-03-06T09:16:46.599Z,44.61
2023-03-06T09:19:16.826Z,44.56
2023-03-06T09:21:47.351Z,46.17
2023-03-06T09:24:18.280Z,46.89
2023-03-06T09:26:51.149Z,47.84
2023-03-06T09:29:21.689Z,48.12
2023-03-06T09:31:52.002Z,48.31
2023-03-06T09:34:22.736Z,48.89
2023-03-06T09:36:57.087Z,49.02
2023-03-06T09:39:28.625Z,49.26
2023-03-06T09:41:59.829Z,49.45
2023-03-06T09:44:32.375Z,49.82
2023-03-06T09:47:02.544Z,49.67
2023-03-06T09:49:35.446Z,50.19
2023-03-06T09:52:05.599Z,50.25
2023-03-06T09:54:58.919Z,50.21
2023-03-06T09:57:30.988Z,50.17
2023-03-06T10:00:04.595Z,50.79
2023-03-06T10:02:40.314Z,50.37
2023-03-06T10:05:15.578Z,50.29
2023-03-06T10:07:48.709Z,50.64
2023-03-06T10:10:24.254Z,50.07
2023-03-06T10:12:57.777Z,50.24
2023-03-06T10:15:29.909Z,50.07
2023-03-06T10:18:00.243Z,50.19
2023-03-06T10:20:35.605Z,50.18
2023-03-06T10:23:26.234Z,50.23
2023-03-06T10:25:56.334Z,50.27
2023-03-06T10:28:30.715Z,50.82
2023-03-06T10:31:00.912Z,50.90
2023-03-06T10:33:46.153Z,51.21
2023-03-06T10:36:18.030Z,51.24
2023-03-06T10:38:50.066Z,51.59
2023-03-06T10:41:24.046Z,52.26
2023-03-06T10:44:03.259Z,52.69
2023-03-06T10:46:35.690Z,52.42
2023-03-06T10:49:10.584Z,51.94
2023-03-06T10:51:40.769Z,51.90
2023-03-06T10:54:11.063Z,52.96
2023-03-06T10:56:43.231Z,53.30
2023-03-06T10:59:15.015Z,53.93
2023-03-06T11:01:46.641Z,53.88
2023-03-06T11:04:28.050Z,53.71
2023-03-06T11:07:07.346Z,54.44
2023-03-06T11:09:38.306Z,53.85
2023-03-06T11:12:26.725Z,53.42
2023-03-06T11:15:11.821Z,52.96
2023-03-06T11:18:02.483Z,53.01
2023-03-06T11:20:51.425Z,53.11
2023-03-06T11:23:25.452Z,52.35
2023-03-06T11:26:07.600Z,52.03
2023-03-06T11:29:00.695Z,51.71
2023-03-06T11:31:33.463Z,51.36
2023-03-06T11:34:03.675Z,51.32
2023-03-06T11:36:36.880Z,50.52
2023-03-06T11:39:18.363Z,50.98
2023-03-06T11:41:59.618Z,50.74
2023-03-06T11:44:45.264Z,50.95
2023-03-06T11:47:21.739Z,50.63
2023-03-06T11:49:54.728Z,50.93
2023-03-06T11:52:28.176Z,50.60
2023-03-06T11:54:59.425Z,50.81
2023-03-06T11:57:42.946Z,50.85
2023-03-06T12:00:18.903Z,50.87
2023-03-06T12:02:58.620Z,51.03
2023-03-06T12:05:38.757Z,50.56
2023-03-06T12:08:27.456Z,50.80
2023-03-06T12:14:09.670Z,50.71
2023-03-06T12:16:54.471Z,50.73
2023-03-06T12:19:44.735Z,51.94
2023-03-06T12:22:36.475Z,52.46
2023-03-06T12:25:18.312Z,52.00
2023-03-06T12:28:00.436Z,51.84
2023-03-06T12:30:34.049Z,52.61
2023-03-06T12:33:04.232Z,53.47
2023-03-06T12:35:45.704Z,53.19
2023-03-06T12:38:34.174Z,53.13
2023-03-06T12:41:14.489Z,53.69
2023-03-06T12:44:03.979Z,53.29
2023-03-06T12:46:36.365Z,53.32
2023-03-06T12:49:06.523Z,54.53
2023-03-06T12:51:37.879Z,56.14
2023-03-06T12:54:08.775Z,56.97
2023-03-06T12:56:40.789Z,55.87
2023-03-06T12:59:32.394Z,56.39
2023-03-06T13:02:26.044Z,55.46
2023-03-06T13:05:14.179Z,52.62
2023-03-06T13:08:02.715Z,52.18
2023-03-06T13:10:37.847Z,52.23
2023-03-06T13:13:27.385Z,52.09
2023-03-06T13:16:24.308Z,51.69
2023-03-06T13:19:03.001Z,51.14
2023-03-06T13:21:51.398Z,51.28
2023-03-06T13:24:28.812Z,50.57
2023-03-06T13:27:01.505Z,50.66
2023-03-06T13:29:37.652Z,49.76
2023-03-06T13:32:16.565Z,49.48
2023-03-06T13:34:51.471Z,49.77
2023-03-06T13:37:22.475Z,49.47
2023-03-06T13:39:55.589Z,49.52
2023-03-06T13:42:36.662Z,48.84
2023-03-06T13:45:15.714Z,48.77
2023-03-06T13:50:49.211Z,47.87
2023-03-06T13:53:40.147Z,47.85
2023-03-06T13:56:10.469Z,46.71
2023-03-06T13:58:59.340Z,47.13
2023-03-06T14:01:32.823Z,46.88
2023-03-06T14:04:21.232Z,47.02
2023-03-06T14:07:11.672Z,46.47
2023-03-06T14:09:44.484Z,45.92
2023-03-06T14:12:19.629Z,45.64
2023-03-06T14:14:52.565Z,45.75
2023-03-06T14:17:29.260Z,46.08
2023-03-06T14:20:19.644Z,46.48
2023-03-06T14:22:50.487Z,46.81
2023-03-06T14:25:20.631Z,47.13
2023-03-06T14:27:55.000Z,47.86
2023-03-06T14:30:28.482Z,47.63
2023-03-06T14:32:59.089Z,47.43
2023-03-06T14:35:31.230Z,47.01
2023-03-06T14:38:04.198Z,46.73
2023-03-06T14:40:42.726Z,46.90
2023-03-06T14:43:24.555Z,46.28
2023-03-06T14:45:59.872Z,46.24
2023-03-06T14:48:40.799Z,45.90
2023-03-06T14:51:37.005Z,45.96
2023-03-06T14:54:08.313Z,46.14
2023-03-06T14:56:42.917Z,45.87
2023-03-06T14:59:17.799Z,44.61
2023-03-06T15:01:50.308Z,44.38
2023-03-06T15:04:38.757Z,44.10
2023-03-06T15:07:14.377Z,43.62
2023-03-06T15:09:54.926Z,42.98
2023-03-06T15:12:25.816Z,42.96
2023-03-06T15:15:21.812Z,42.42
2023-03-06T15:17:52.017Z,42.35
2023-03-06T15:20:42.650Z,41.97
2023-03-06T15:23:35.710Z,41.56
2023-03-06T15:26:20.197Z,41.35
2023-03-06T15:29:09.108Z,41.41
2023-03-06T15:31:41.138Z,41.94
2023-03-06T15:34:11.414Z,41.71
2023-03-06T15:36:46.615Z,41.57
2023-03-06T15:39:30.931Z,40.96
2023-03-06T15:42:19.803Z,41.27
2023-03-06T15:45:04.568Z,40.19
2023-03-06T15:47:34.962Z,40.16
2023-03-06T15:50:06.029Z,39.96
2023-03-06T15:52:36.338Z,40.17
2023-03-06T15:55:06.692Z,39.66
2023-03-06T15:57:37.673Z,39.46
2023-03-06T16:00:26.465Z,39.47
2023-03-06T16:02:58.952Z,39.62
2023-03-06T16:05:30.538Z,39.90
2023-03-06T16:08:01.522Z,39.76
2023-03-06T16:10:32.621Z,39.52
2023-03-06T16:13:04.740Z,39.78
2023-03-06T16:15:40.048Z,39.30
2023-03-06T16:18:12.230Z,39.17
2023-03-06T16:20:43.076Z,39.34
2023-03-06T16:23:13.371Z,38.87
2023-03-06T16:25:45.782Z,39.28
2023-03-06T16:28:18.117Z,39.02
2023-03-06T16:30:48.448Z,38.85
2023-03-06T16:33:19.115Z,38.78
2023-03-06T16:35:49.648Z,39.03
2023-03-06T16:38:19.907Z,39.41
2023-03-06T16:40:50.119Z,39.45
2023-03-06T16:43:20.480Z,39.51
2023-03-06T16:45:50.743Z,39.71
2023-03-06T16:48:20.946Z,39.61
2023-03-06T16:50:52.624Z,39.75
2023-03-06T16:53:23.385Z,39.81
2023-03-06T16:55:53.761Z,39.58
2023-03-06T16:58:24.627Z,39.34
2023-03-06T17:00:55.982Z,39.63
2023-03-06T17:03:27.858Z,39.41
2023-03-06T17:05:58.104Z,39.88
2023-03-06T17:08:28.370Z,39.44
2023-03-06T17:10:58.513Z,39.65
2023-03-06T17:13:29.543Z,39.55
2023-03-06T17:16:00.836Z,39.39
2023-03-06T17:18:31.856Z,39.68
2023-03-06T17:21:02.049Z,39.51
2023-03-06T17:23:32.400Z,39.56
2023-03-06T17:26:06.368Z,39.66
2023-03-06T17:28:36.977Z,39.61
2023-03-06T17:31:15.709Z,39.67
2023-03-06T17:33:45.943Z,39.80
2023-03-06T17:36:16.726Z,39.70
2023-03-06T17:38:47.385Z,39.65
2023-03-06T17:41:17.632Z,39.49
2023-03-06T17:43:47.956Z,39.92
2023-03-06T17:46:19.795Z,39.46
2023-03-06T17:48:50.075Z,39.67
2023-03-06T17:51:20.610Z,39.70
2023-03-06T17:53:50.954Z,39.75
2023-03-06T17:56:21.201Z,39.76
2023-03-06T17:58:51.385Z,39.80
2023-03-06T18:01:23.442Z,39.71
2023-03-06T18:03:53.723Z,39.57
2023-03-06T18:06:24.776Z,39.65
2023-03-06T18:08:55.990Z,39.52
2023-03-06T18:11:26.422Z,39.65
2023-03-06T18:13:56.782Z,39.72
2023-03-06T18:16:28.504Z,39.60
2023-03-06T18:18:58.917Z,39.47
2023-03-06T18:21:30.148Z,39.73
2023-03-06T18:24:00.710Z,39.51
2023-03-06T18:26:31.943Z,39.57
2023-03-06T18:29:04.905Z,40.00
2023-03-06T18:31:36.892Z,39.80
2023-03-06T18:34:11.979Z,40.06
2023-03-06T18:36:44.009Z,39.95
2023-03-06T18:39:15.928Z,39.81
2023-03-06T18:41:46.525Z,40.06
2023-03-06T18:44:17.748Z,39.76
2023-03-06T18:46:47.983Z,39.87
2023-03-06T18:49:18.134Z,39.77
2023-03-06T18:51:49.564Z,41.37
2023-03-06T18:54:20.492Z,42.85
2023-03-06T18:56:50.639Z,43.89
2023-03-06T18:59:21.588Z,45.56
2023-03-06T19:01:53.436Z,46.49
2023-03-06T19:04:27.359Z,45.96
2023-03-06T19:06:57.873Z,45.19
2023-03-06T19:09:28.614Z,44.59
2023-03-06T19:12:04.888Z,44.09
2023-03-06T19:14:35.111Z,43.26
2023-03-06T19:17:05.307Z,43.28
2023-03-06T19:19:35.582Z,42.49
2023-03-06T19:22:05.777Z,42.45
2023-03-06T19:24:36.087Z,41.95
2023-03-06T19:27:06.273Z,41.92
2023-03-06T19:29:36.472Z,42.45
2023-03-06T19:32:06.883Z,43.82
2023-03-06T19:34:37.051Z,45.03
2023-03-06T19:37:07.206Z,46.59
2023-03-06T19:39:37.389Z,47.50
2023-03-06T19:42:08.230Z,48.60
2023-03-06T19:44:38.640Z,47.14
2023-03-06T19:47:08.792Z,46.47
2023-03-06T19:49:40.151Z,45.45
2023-03-06T19:52:10.449Z,45.28
2023-03-06T19:54:40.630Z,44.53
2023-03-06T19:57:10.845Z,44.07
2023-03-06T19:59:41.434Z,43.52
2023-03-06T20:02:14.721Z,43.07
2023-03-06T20:04:44.881Z,42.99
2023-03-06T20:07:15.098Z,44.00
2023-03-06T20:09:45.224Z,45.12
2023-03-06T20:12:16.117Z,46.49
2023-03-06T20:14:47.551Z,48.03
2023-03-06T20:17:18.908Z,48.38
2023-03-06T20:19:49.363Z,48.46
2023-03-06T20:22:20.612Z,47.35
2023-03-06T20:24:51.611Z,46.53
2023-03-06T20:27:21.906Z,45.95
2023-03-06T20:29:52.644Z,45.34
2023-03-06T20:32:22.780Z,44.88
2023-03-06T20:34:53.693Z,44.20
2023-03-06T20:37:23.877Z,43.77
2023-03-06T20:39:54.210Z,43.46
2023-03-06T20:42:24.753Z,43.47
2023-03-06T20:44:59.923Z,44.79
2023-03-06T20:47:38.053Z,46.18
2023-03-06T20:50:08.621Z,47.30
2023-03-06T20:52:39.352Z,48.21
2023-03-06T20:55:09.827Z,49.95
2023-03-06T20:57:39.985Z,49.11
2023-03-06T21:00:10.553Z,47.90
2023-03-06T21:02:40.768Z,46.98
2023-03-06T21:05:11.293Z,46.27
2023-03-06T21:07:41.725Z,45.81
2023-03-06T21:10:13.034Z,45.15
2023-03-06T21:12:43.237Z,44.52
2023-03-06T21:15:14.453Z,44.29
2023-03-06T21:17:45.079Z,45.07
2023-03-06T21:20:15.330Z,46.45
2023-03-06T21:22:45.534Z,47.82
2023-03-06T21:25:15.955Z,48.93
2023-03-06T21:27:46.425Z,50.44
2023-03-06T21:30:16.601Z,48.73
2023-03-06T21:32:47.002Z,51.42
2023-03-06T21:35:17.782Z,49.74
2023-03-06T21:37:48.518Z,48.83
2023-03-06T21:40:18.835Z,47.86
2023-03-06T21:42:49.122Z,47.16
2023-03-06T21:45:19.457Z,46.30
2023-03-06T21:47:50.356Z,45.93
2023-03-06T21:50:20.648Z,45.94
2023-03-06T21:52:51.050Z,47.38
2023-03-06T21:55:21.351Z,48.32
2023-03-06T21:57:52.538Z,49.93
2023-03-06T22:00:25.135Z,50.77
2023-03-06T22:02:55.473Z,51.13
2023-03-06T22:05:26.429Z,49.81
2023-03-06T22:07:56.743Z,51.98
2023-03-06T22:10:28.248Z,50.33
2023-03-06T22:12:58.561Z,49.73
2023-03-06T22:15:28.755Z,48.19
2023-03-06T22:18:01.592Z,47.47
2023-03-06T22:20:31.783Z,46.80
2023-03-06T22:23:01.943Z,47.83
2023-03-06T22:25:32.734Z,48.85
2023-03-06T22:28:03.630Z,50.00
2023-03-06T22:30:33.828Z,51.26
2023-03-06T22:33:04.219Z,52.19
2023-03-06T22:35:34.608Z,52.33
2023-03-06T22:38:06.008Z,51.40
2023-03-06T22:40:36.237Z,53.06
2023-03-06T22:43:06.521Z,52.90
2023-03-06T22:45:36.793Z,51.41
2023-03-06T22:48:11.071Z,50.14
2023-03-06T22:50:41.732Z,49.01
2023-03-06T22:53:12.732Z,47.79
2023-03-06T22:55:43.012Z,48.30
2023-03-06T22:58:13.553Z,49.76
2023-03-06T23:00:43.915Z,50.64
2023-03-06T23:03:14.600Z,51.21
2023-03-06T23:05:44.866Z,52.01
2023-03-06T23:08:15.123Z,52.58
2023-03-06T23:10:45.099Z,51.91
2023-03-06T23:13:33.776Z,52.90
2023-03-06T23:16:23.202Z,52.92
2023-03-06T23:19:12.235Z,51.48
2023-03-06T23:22:00.465Z,50.01
2023-03-06T23:24:49.287Z,48.84
2023-03-06T23:27:20.730Z,48.22
2023-03-06T23:29:51.851Z,49.45
2023-03-06T23:32:22.260Z,50.14
2023-03-06T23:34:52.479Z,52.07
2023-03-06T23:37:22.980Z,52.92
2023-03-06T23:39:53.423Z,52.76
2023-03-06T23:42:24.077Z,52.48
2023-03-06T23:44:54.330Z,51.94
2023-03-06T23:47:24.579Z,55.66
2023-03-06T23:49:54.805Z,53.47
2023-03-06T23:52:25.043Z,52.92
2023-03-06T23:54:55.628Z,54.53
2023-03-06T23:57:26.432Z,54.99
2023-03-06T23:59:57.051Z,55.51
